MMCE

Ciudad del Carmen International Airport

Ciudad del Carmen, Mexico
TAF MMCE 201653Z 2018/2118 12010KT 6SM HZ SCT030 FM202100 02015KT P6SM BKN030 FM210600 12014KT 6SM HZ BKN020 TEMPO 2110/2114 5SM HZ SCT015
Issued Valid From Valid To
Apr-20 @ 16:53 UTC
(2 hours ago)
Apr-20 @ 18:00 UTC
(29 minutes ago)
Apr-21 @ 18:00 UTC
(in 24 hours)
Apr-20 @ 18:00 to Apr-20 @ 21:00
TAF MMCE 201653Z 2018/2118 12010KT 6SM HZ SCT030
Wind Visibility Clouds Conditions
120° at 10 knots 6 miles
  • Scattered at 3,000' AGL
  • Haze
From Apr-20 @ 21:00 to Apr-21 @ 06:00
FM202100 02015KT P6SM BKN030
Wind Visibility Clouds
20° at 15 knots Greater than 6 miles
  • Broken at 3,000' AGL
From Apr-21 @ 06:00 to Apr-21 @ 18:00
FM210600 12014KT 6SM HZ BKN020
Wind Visibility Clouds Conditions
120° at 14 knots 6 miles
  • Broken at 2,000' AGL
  • Haze
Temporary Apr-21 @ 10:00 to Apr-21 @ 14:00
TEMPO 2110/2114 5SM HZ SCT015
Visibility Clouds Conditions
5 miles
  • Scattered at 1,500' AGL
  • Haze
TAF MMCE 201653Z 2018/2118 12010KT 6SM HZ SCT030 FM202100 02015KT P6SM BKN030 FM210600 12014KT 6SM HZ BKN020 TEMPO 2110/2114 5SM HZ SCT015
Issued Apr-20 @ 16:53 UTC
(2 hours ago)
Valid From Apr-20 @ 18:00 UTC
(29 minutes ago)
Valid To Apr-21 @ 18:00 UTC
(in 24 hours)
Apr-20 @ 18:00 - Apr-20 @ 21:00
Wind Visibility
120° at 10 knots 6 miles
Clouds
  • Scattered at 3,000' AGL
Conditions
  • Haze
From Apr-20 @ 21:00 - Apr-21 @ 06:00
Wind Visibility
20° at 15 knots Greater than 6 miles
Clouds
  • Broken at 3,000' AGL
From Apr-21 @ 06:00 - Apr-21 @ 18:00
Wind Visibility
120° at 14 knots 6 miles
Clouds
  • Broken at 2,000' AGL
Conditions
  • Haze
Temporary Apr-21 @ 10:00 - Apr-21 @ 14:00
Clouds
  • Scattered at 1,500' AGL
Conditions
  • Haze